createdAt,value
2022-08-05T00:01:36.204Z,46.03
2022-08-05T00:04:18.176Z,46.75
2022-08-05T00:06:51.721Z,47.25
2022-08-05T00:09:20.337Z,47.44
2022-08-05T00:11:55.364Z,46.93
2022-08-05T00:14:27.490Z,46.67
2022-08-05T00:16:57.937Z,47.30
2022-08-05T00:19:33.789Z,46.95
2022-08-05T00:22:12.123Z,47.37
2022-08-05T00:24:42.407Z,47.25
2022-08-05T00:27:28.552Z,47.38
2022-08-05T00:29:58.862Z,47.27
2022-08-05T00:32:31.332Z,47.64
2022-08-05T00:35:06.664Z,48.40
2022-08-05T00:37:52.860Z,48.50
2022-08-05T00:40:28.437Z,48.42
2022-08-05T00:42:58.327Z,48.23
2022-08-05T00:45:38.675Z,48.32
2022-08-05T00:48:08.219Z,48.05
2022-08-05T00:50:41.879Z,49.16
2022-08-05T00:54:01.027Z,49.47
2022-08-05T00:56:00.523Z,49.72
2022-08-05T00:58:28.753Z,50.25
2022-08-05T01:00:56.980Z,49.85
2022-08-05T01:03:30.857Z,49.33
2022-08-05T01:06:03.946Z,49.90
2022-08-05T01:08:43.026Z,49.23
2022-08-05T01:11:22.191Z,49.80
2022-08-05T01:14:08.463Z,50.49
2022-08-05T01:16:41.716Z,50.41
2022-08-05T01:19:56.343Z,50.23
2022-08-05T01:22:24.338Z,50.43
2022-08-05T01:25:13.663Z,50.94
2022-08-05T01:28:07.428Z,51.05
2022-08-05T01:30:39.616Z,51.09
2022-08-05T01:33:20.552Z,51.02
2022-08-05T01:35:57.465Z,51.12
2022-08-05T01:38:29.418Z,50.98
2022-08-05T01:41:00.063Z,51.14
2022-08-05T01:43:31.714Z,50.92
2022-08-05T01:46:07.283Z,51.22
2022-08-05T01:48:45.616Z,51.22
2022-08-05T01:51:18.500Z,51.26
2022-08-05T01:53:57.078Z,50.83
2022-08-05T01:58:11.158Z,50.78
2022-08-05T01:59:22.097Z,50.42
2022-08-05T02:01:51.525Z,51.02
2022-08-05T02:04:24.256Z,51.61
2022-08-05T02:06:53.796Z,52.03
2022-08-05T02:09:22.040Z,51.42
2022-08-05T02:12:02.837Z,51.17
2022-08-05T02:14:34.934Z,50.60
2022-08-05T02:17:08.230Z,50.04
2022-08-05T02:19:50.089Z,49.91
2022-08-05T02:22:26.721Z,49.98
2022-08-05T02:25:00.059Z,50.17
2022-08-05T02:27:30.242Z,50.05
2022-08-05T02:30:17.998Z,49.72
2022-08-05T02:32:49.322Z,49.75
2022-08-05T02:35:27.648Z,49.89
2022-08-05T02:38:00.101Z,49.91
2022-08-05T02:40:28.396Z,49.95
2022-08-05T02:42:57.397Z,50.04
2022-08-05T02:45:28.763Z,50.23
2022-08-05T02:48:17.390Z,50.12
2022-08-05T02:50:47.438Z,50.05
2022-08-05T02:53:19.136Z,50.42
2022-08-05T02:55:54.885Z,50.46
2022-08-05T02:58:30.004Z,50.54
2022-08-05T03:01:02.852Z,50.80
2022-08-05T03:03:34.226Z,50.46
2022-08-05T03:06:53.819Z,49.98
2022-08-05T03:09:09.022Z,50.34
2022-08-05T03:11:55.239Z,51.16
2022-08-05T03:14:26.822Z,51.66
2022-08-05T03:16:56.301Z,52.32
2022-08-05T03:19:33.883Z,52.67
2022-08-05T03:22:05.083Z,53.10
2022-08-05T03:24:47.001Z,52.94
2022-08-05T03:27:17.452Z,52.95
2022-08-05T03:30:08.777Z,52.79
2022-08-05T03:32:34.778Z,52.48
2022-08-05T03:35:04.613Z,51.71
2022-08-05T03:37:46.325Z,51.85
2022-08-05T03:40:31.303Z,51.97
2022-08-05T03:43:01.470Z,51.73
2022-08-05T03:45:57.129Z,51.97
2022-08-05T03:48:29.166Z,52.16
2022-08-05T03:52:34.691Z,51.99
2022-08-05T03:55:51.173Z,52.27
2022-08-05T03:56:43.279Z,53.30
2022-08-05T03:59:20.372Z,52.94
2022-08-05T04:01:51.717Z,53.20
2022-08-05T04:04:22.576Z,53.38
2022-08-05T04:06:55.135Z,53.26
2022-08-05T04:09:26.319Z,53.54
2022-08-05T04:11:56.823Z,54.11
2022-08-05T04:14:30.102Z,55.33
2022-08-05T04:17:00.523Z,55.03
2022-08-05T04:19:31.158Z,55.33
2022-08-05T04:22:09.576Z,55.03
2022-08-05T04:24:44.025Z,54.51
2022-08-05T04:27:15.625Z,54.68
2022-08-05T04:29:43.958Z,54.50
2022-08-05T04:32:13.645Z,54.33
2022-08-05T04:34:48.519Z,54.49
2022-08-05T04:37:16.668Z,54.51
2022-08-05T04:39:44.830Z,54.29
2022-08-05T04:42:21.295Z,53.85
2022-08-05T04:44:53.497Z,54.63
2022-08-05T04:47:21.717Z,54.40
2022-08-05T04:50:02.895Z,54.42
2022-08-05T04:52:39.331Z,54.96
2022-08-05T04:55:15.048Z,55.46
2022-08-05T04:57:47.771Z,55.98
2022-08-05T05:00:23.278Z,55.55
2022-08-05T05:02:52.309Z,55.74
2022-08-05T05:05:28.714Z,55.81
2022-08-05T05:08:01.445Z,55.86
2022-08-05T05:10:30.385Z,56.71
2022-08-05T05:16:07.254Z,56.90
2022-08-05T05:18:35.133Z,57.24
2022-08-05T05:21:05.593Z,57.30
2022-08-05T05:23:39.452Z,57.10
2022-08-05T05:26:28.071Z,57.41
2022-08-05T05:28:56.097Z,57.08
2022-08-05T05:31:25.083Z,57.29
2022-08-05T05:33:59.157Z,57.08
2022-08-05T05:36:29.714Z,57.26
2022-08-05T05:38:58.170Z,57.96
2022-08-05T05:41:40.343Z,58.41
2022-08-05T05:44:35.590Z,58.32
2022-08-05T05:46:57.969Z,58.59
2022-08-05T05:49:26.190Z,58.82
2022-08-05T05:51:55.462Z,58.16
2022-08-05T05:54:50.289Z,58.37
2022-08-05T05:57:13.805Z,58.58
2022-08-05T05:59:46.812Z,57.93
2022-08-05T06:02:16.719Z,57.83
2022-08-05T06:04:49.140Z,57.57
2022-08-05T06:07:22.533Z,56.77
2022-08-05T06:10:10.336Z,57.22
2022-08-05T06:12:42.081Z,56.98
2022-08-05T06:15:23.665Z,56.57
2022-08-05T06:17:52.679Z,56.61
2022-08-05T06:20:21.914Z,56.75
2022-08-05T06:22:51.267Z,56.55
2022-08-05T06:25:25.028Z,56.38
2022-08-05T06:28:11.225Z,55.83
2022-08-05T06:30:49.151Z,55.55
2022-08-05T06:33:19.190Z,54.85
2022-08-05T06:36:03.731Z,55.02
2022-08-05T06:38:37.152Z,54.39
2022-08-05T06:41:07.883Z,54.40
2022-08-05T06:43:58.622Z,54.87
2022-08-05T06:46:30.045Z,53.23
2022-08-05T06:48:58.746Z,52.96
2022-08-05T06:51:30.255Z,52.73
2022-08-05T06:54:01.837Z,52.62
2022-08-05T06:56:30.139Z,52.07
2022-08-05T06:59:01.700Z,51.38
2022-08-05T07:01:32.671Z,51.63
2022-08-05T07:04:01.416Z,51.00
2022-08-05T07:06:30.320Z,51.15
2022-08-05T07:09:04.199Z,50.59
2022-08-05T07:11:33.086Z,50.17
2022-08-05T07:14:28.972Z,50.13
2022-08-05T07:18:01.837Z,49.63
2022-08-05T07:22:41.995Z,49.10
2022-08-05T07:25:23.585Z,48.86
2022-08-05T07:28:05.750Z,48.99
2022-08-05T07:30:39.159Z,48.71
2022-08-05T07:33:10.396Z,48.69
2022-08-05T07:36:04.657Z,48.26
2022-08-05T07:38:34.399Z,48.51
2022-08-05T07:42:07.128Z,47.73
2022-08-05T07:43:56.083Z,47.40
2022-08-05T07:46:26.197Z,47.68
2022-08-05T07:49:03.874Z,46.83
2022-08-05T07:51:41.130Z,46.54
2022-08-05T07:54:18.844Z,45.80
2022-08-05T07:57:02.057Z,46.32
2022-08-05T07:59:39.990Z,45.64
2022-08-05T08:02:10.662Z,44.73
2022-08-05T08:04:49.462Z,44.76
2022-08-05T08:07:18.390Z,44.37
2022-08-05T08:09:52.560Z,44.84
2022-08-05T08:12:37.518Z,43.64
2022-08-05T08:15:15.341Z,43.50
2022-08-05T08:17:49.654Z,42.17
2022-08-05T08:20:59.819Z,41.70
2022-08-05T08:23:11.825Z,41.85
2022-08-05T08:25:59.897Z,40.73
2022-08-05T08:28:37.321Z,39.73
2022-08-05T08:31:19.373Z,39.05
2022-08-05T08:33:51.601Z,40.12
2022-08-05T08:36:39.240Z,39.68
2022-08-05T08:39:15.013Z,38.61
2022-08-05T08:41:50.837Z,39.14
2022-08-05T08:45:20.946Z,38.82
2022-08-05T08:47:47.081Z,38.56
2022-08-05T08:50:31.930Z,38.87
2022-08-05T08:53:00.626Z,37.10
2022-08-05T08:56:02.444Z,37.45
2022-08-05T08:58:17.832Z,37.52
2022-08-05T09:00:55.505Z,37.56
2022-08-05T09:03:23.540Z,37.85
2022-08-05T09:06:08.935Z,37.47
2022-08-05T09:08:40.591Z,37.40
2022-08-05T09:11:12.087Z,37.28
2022-08-05T09:14:00.846Z,37.00
2022-08-05T09:16:32.224Z,36.63
2022-08-05T09:19:00.092Z,36.09
2022-08-05T09:22:22.475Z,35.84
2022-08-05T09:24:17.421Z,36.09
2022-08-05T09:26:48.633Z,35.41
2022-08-05T09:29:19.933Z,34.97
2022-08-05T09:34:50.968Z,35.20
2022-08-05T09:38:12.310Z,35.04
2022-08-05T09:40:08.871Z,33.59
2022-08-05T09:42:48.285Z,33.74
2022-08-05T09:45:17.376Z,34.57
2022-08-05T09:47:55.598Z,34.71
2022-08-05T09:50:38.830Z,34.53
2022-08-05T09:53:22.902Z,34.68
2022-08-05T09:56:03.929Z,34.18
2022-08-05T09:58:32.893Z,34.95
2022-08-05T10:01:02.294Z,34.67
2022-08-05T10:03:59.078Z,32.86
2022-08-05T10:06:29.054Z,33.15
2022-08-05T10:09:27.568Z,33.02
2022-08-05T10:11:56.406Z,32.46
2022-08-05T10:14:28.426Z,31.59
2022-08-05T10:17:14.115Z,31.45
2022-08-05T10:20:04.058Z,32.57
2022-08-05T10:22:48.659Z,32.24
2022-08-05T10:25:18.901Z,31.73
2022-08-05T10:28:16.789Z,32.65
2022-08-05T10:31:20.376Z,32.40
2022-08-05T10:33:29.033Z,32.27
2022-08-05T10:35:59.847Z,31.99
2022-08-05T10:38:33.295Z,30.87
2022-08-05T10:41:07.545Z,31.18
2022-08-05T10:43:43.902Z,30.43
2022-08-05T10:46:13.436Z,31.29
2022-08-05T10:48:57.055Z,31.43
2022-08-05T10:51:29.035Z,30.97
2022-08-05T10:54:01.774Z,30.84
2022-08-05T10:56:45.868Z,30.72
2022-08-05T11:00:04.080Z,30.38
2022-08-05T11:02:14.244Z,30.34
2022-08-05T11:04:58.914Z,30.25
2022-08-05T11:07:33.003Z,31.14
2022-08-05T11:10:27.772Z,30.56
2022-08-05T11:12:57.558Z,30.81
2022-08-05T11:16:00.303Z,30.19
2022-08-05T11:18:29.725Z,29.99
2022-08-05T11:20:59.083Z,30.09
2022-08-05T11:24:03.847Z,29.44
2022-08-05T11:26:32.948Z,29.46
2022-08-05T11:29:11.761Z,28.84
2022-08-05T11:31:57.836Z,28.47
2022-08-05T11:34:51.421Z,29.20
2022-08-05T11:38:28.946Z,29.45
2022-08-05T11:41:13.904Z,29.93
2022-08-05T11:44:05.215Z,30.57
2022-08-05T11:46:36.355Z,30.13
2022-08-05T11:49:07.997Z,29.87
2022-08-05T11:51:44.224Z,29.83
2022-08-05T11:54:34.007Z,29.31
2022-08-05T11:57:07.596Z,29.48
2022-08-05T11:59:53.283Z,28.48
2022-08-05T12:02:31.926Z,28.88
2022-08-05T12:05:07.728Z,28.44
2022-08-05T12:08:03.304Z,29.09
2022-08-05T12:10:38.672Z,29.05
2022-08-05T12:13:13.954Z,29.50
2022-08-05T12:15:49.854Z,28.58
2022-08-05T12:18:24.296Z,28.88
2022-08-05T12:20:52.578Z,28.79
2022-08-05T12:23:20.395Z,29.30
2022-08-05T12:25:56.599Z,29.39
2022-08-05T12:28:32.399Z,29.13
2022-08-05T12:31:02.049Z,28.52
2022-08-05T12:33:37.080Z,28.02
2022-08-05T12:36:08.972Z,27.60
2022-08-05T12:38:38.097Z,27.55
2022-08-05T12:41:13.322Z,26.48
2022-08-05T12:43:53.660Z,26.71
2022-08-05T12:46:28.831Z,26.67
2022-08-05T12:48:58.958Z,27.27
2022-08-05T12:52:12.789Z,27.27
2022-08-05T12:54:23.380Z,27.53
2022-08-05T12:56:53.451Z,27.40
2022-08-05T12:59:46.769Z,26.90
2022-08-05T13:02:13.021Z,26.69
2022-08-05T13:04:52.585Z,27.37
2022-08-05T13:07:56.121Z,26.84
2022-08-05T13:10:13.005Z,27.25
2022-08-05T13:12:42.702Z,26.66
2022-08-05T13:15:24.426Z,26.28
2022-08-05T13:18:05.424Z,26.20
2022-08-05T13:20:40.318Z,27.55
2022-08-05T13:23:08.541Z,27.15
2022-08-05T13:25:52.327Z,27.61
2022-08-05T13:28:24.229Z,27.22
2022-08-05T13:30:53.325Z,27.91
2022-08-05T13:34:24.571Z,28.11
2022-08-05T13:36:12.938Z,29.03
2022-08-05T13:38:43.172Z,28.76
2022-08-05T13:41:13.620Z,29.61
2022-08-05T13:43:54.926Z,29.51
2022-08-05T13:49:14.099Z,29.79
2022-08-05T13:51:46.629Z,29.80
2022-08-05T13:54:16.103Z,30.14
2022-08-05T13:56:51.656Z,30.26
2022-08-05T13:59:24.429Z,29.89
2022-08-05T14:01:57.573Z,29.83
2022-08-05T14:04:49.490Z,29.91
2022-08-05T14:07:25.689Z,28.99
2022-08-05T14:10:08.368Z,28.88
2022-08-05T14:12:36.934Z,29.24
2022-08-05T14:15:05.998Z,29.76
2022-08-05T14:17:54.970Z,29.35
2022-08-05T14:20:27.631Z,29.36
2022-08-05T14:22:55.946Z,29.49
2022-08-05T14:25:28.211Z,29.91
2022-08-05T14:27:56.503Z,30.05
2022-08-05T14:30:27.809Z,30.35
2022-08-05T14:32:56.875Z,30.77
2022-08-05T14:35:50.145Z,30.82
2022-08-05T14:38:31.935Z,31.09
2022-08-05T14:41:01.556Z,31.30
2022-08-05T14:44:01.473Z,31.65
2022-08-05T14:46:21.672Z,31.97
2022-08-05T14:48:50.249Z,31.99
2022-08-05T14:51:19.663Z,32.56
2022-08-05T14:54:26.768Z,32.59
2022-08-05T14:56:38.176Z,33.86
2022-08-05T14:59:12.676Z,35.62
2022-08-05T15:01:47.609Z,36.13
2022-08-05T15:04:17.296Z,37.05
2022-08-05T15:06:49.106Z,37.19
2022-08-05T15:09:51.198Z,37.97
2022-08-05T15:12:06.941Z,38.45
2022-08-05T15:14:48.157Z,38.69
2022-08-05T15:17:44.503Z,38.21
2022-08-05T15:20:09.779Z,38.52
2022-08-05T15:22:46.504Z,38.98
2022-08-05T15:25:41.285Z,39.24
2022-08-05T15:28:13.223Z,40.50
2022-08-05T15:30:43.255Z,40.53
2022-08-05T15:33:11.826Z,40.41
2022-08-05T15:35:45.526Z,40.65
2022-08-05T15:38:34.062Z,41.01
2022-08-05T15:41:22.412Z,41.10
2022-08-05T15:43:52.473Z,43.63
2022-08-05T15:46:25.034Z,50.93
2022-08-05T15:48:58.614Z,54.94
2022-08-05T15:52:03.983Z,52.72
2022-08-05T15:54:19.010Z,56.44
2022-08-05T15:56:47.024Z,53.69
2022-08-05T15:59:21.885Z,55.46
2022-08-05T16:01:52.609Z,54.53
2022-08-05T16:04:20.959Z,53.06
2022-08-05T16:06:53.899Z,53.69
2022-08-05T16:09:25.694Z,50.34
2022-08-05T16:11:54.176Z,51.04
2022-08-05T16:14:22.544Z,51.81
2022-08-05T16:16:51.269Z,51.48
2022-08-05T16:20:03.621Z,50.22
2022-08-05T16:22:10.605Z,50.37
2022-08-05T16:24:51.030Z,50.27
2022-08-05T16:27:47.312Z,50.88
2022-08-05T16:30:23.271Z,48.13
2022-08-05T16:32:53.897Z,48.55
2022-08-05T16:35:28.286Z,48.09
2022-08-05T16:38:14.955Z,48.44
2022-08-05T16:40:55.474Z,48.29
2022-08-05T16:43:28.671Z,47.73
2022-08-05T16:46:04.153Z,48.57
2022-08-05T16:48:40.529Z,48.72
2022-08-05T16:51:09.966Z,48.20
2022-08-05T16:54:03.262Z,47.21
2022-08-05T16:56:33.839Z,47.53
2022-08-05T16:59:08.003Z,47.80
2022-08-05T17:01:54.541Z,47.75
2022-08-05T17:04:27.804Z,46.53
2022-08-05T17:07:00.346Z,46.92
2022-08-05T17:09:29.606Z,47.24
2022-08-05T17:12:01.413Z,47.10
2022-08-05T17:14:37.022Z,46.99
2022-08-05T17:17:14.574Z,47.23
2022-08-05T17:19:45.639Z,47.20
2022-08-05T17:22:24.892Z,47.56
2022-08-05T17:24:57.781Z,47.75
2022-08-05T17:27:33.664Z,48.36
2022-08-05T17:30:03.221Z,48.13
2022-08-05T17:32:32.158Z,48.80
2022-08-05T17:35:01.768Z,48.50
2022-08-05T17:37:41.844Z,48.95
2022-08-05T17:40:15.427Z,49.18
2022-08-05T17:42:51.311Z,49.47
2022-08-05T17:45:23.058Z,49.65
2022-08-05T17:47:54.841Z,48.87
2022-08-05T17:50:28.694Z,49.37
2022-08-05T17:52:59.421Z,49.51
2022-08-05T17:55:37.317Z,49.67
2022-08-05T17:58:12.427Z,49.10
2022-08-05T18:00:44.997Z,49.64
2022-08-05T18:03:39.211Z,49.78
2022-08-05T18:06:12.332Z,50.16
2022-08-05T18:08:44.518Z,49.59
2022-08-05T18:11:24.165Z,49.97
2022-08-05T18:14:04.352Z,50.31
2022-08-05T18:16:35.088Z,50.50
2022-08-05T18:19:22.823Z,50.37
2022-08-05T18:22:08.265Z,50.77
2022-08-05T18:24:39.491Z,50.46
2022-08-05T18:27:12.381Z,50.76
2022-08-05T18:29:53.620Z,50.59
2022-08-05T18:32:27.815Z,50.99
2022-08-05T18:34:57.703Z,51.31
2022-08-05T18:37:34.038Z,51.16
2022-08-05T18:40:34.302Z,51.61
2022-08-05T18:42:56.748Z,51.86
2022-08-05T18:45:41.875Z,52.49
2022-08-05T18:48:11.505Z,52.65
2022-08-05T18:50:57.278Z,53.42
2022-08-05T18:53:34.743Z,54.15
2022-08-05T18:56:12.451Z,54.26
2022-08-05T18:58:42.954Z,54.73
2022-08-05T19:01:18.045Z,55.18
2022-08-05T19:03:55.190Z,56.30
2022-08-05T19:06:34.223Z,56.20
2022-08-05T19:09:05.299Z,56.54
2022-08-05T19:11:59.280Z,56.66
2022-08-05T19:14:53.465Z,57.23
2022-08-05T19:17:12.879Z,58.46
2022-08-05T19:19:44.066Z,58.87
2022-08-05T19:22:17.373Z,59.81
2022-08-05T19:24:55.926Z,60.48
2022-08-05T19:27:30.300Z,60.09
2022-08-05T19:29:58.501Z,60.55
2022-08-05T19:32:28.140Z,60.94
2022-08-05T19:34:56.805Z,60.41
2022-08-05T19:37:29.913Z,60.72
2022-08-05T19:40:14.872Z,60.92
2022-08-05T19:42:43.013Z,61.38
2022-08-05T19:45:33.133Z,61.15
2022-08-05T19:48:06.682Z,60.49
2022-08-05T19:50:35.037Z,60.67
2022-08-05T19:53:10.656Z,60.13
2022-08-05T19:56:29.878Z,60.16
2022-08-05T21:37:13.061Z,66.02
2022-08-05T21:39:50.742Z,66.03
2022-08-05T21:42:41.450Z,66.38
2022-08-05T21:46:01.648Z,66.81
2022-08-05T21:48:09.818Z,66.66
2022-08-05T21:53:47.108Z,65.82
2022-08-05T21:57:32.582Z,65.24
2022-08-05T22:00:29.004Z,65.04
2022-08-05T22:03:20.653Z,65.13
2022-08-05T22:06:12.063Z,65.82
2022-08-05T22:09:14.035Z,65.38
2022-08-05T22:11:53.693Z,65.76
2022-08-05T22:24:01.694Z,64.73
2022-08-05T22:26:40.724Z,65.17
2022-08-05T22:29:08.871Z,64.45
2022-08-05T22:31:44.821Z,64.83
2022-08-05T22:34:25.522Z,64.34
2022-08-05T22:36:58.494Z,64.47
2022-08-05T22:39:32.735Z,64.55
2022-08-05T22:42:11.016Z,64.79
2022-08-05T22:44:42.665Z,64.98
2022-08-05T22:47:29.061Z,64.89
2022-08-05T22:50:19.302Z,64.16
2022-08-05T22:52:47.697Z,64.72
2022-08-05T22:55:19.590Z,63.35
2022-08-05T22:57:51.348Z,63.37
2022-08-05T23:00:21.585Z,63.46
2022-08-05T23:02:50.298Z,63.41
2022-08-05T23:05:22.214Z,63.42
2022-08-05T23:07:50.914Z,63.25
2022-08-05T23:10:20.885Z,63.66
2022-08-05T23:12:55.702Z,63.50
2022-08-05T23:15:27.071Z,62.84
2022-08-05T23:18:00.737Z,60.30
2022-08-05T23:20:30.956Z,57.88
2022-08-05T23:22:59.245Z,56.98
2022-08-05T23:25:52.524Z,56.35
2022-08-05T23:28:17.282Z,56.23
2022-08-05T23:30:53.124Z,56.70
2022-08-05T23:33:26.283Z,57.41
2022-08-05T23:36:10.534Z,56.60
2022-08-05T23:38:38.916Z,58.03
2022-08-05T23:41:07.134Z,58.26
2022-08-05T23:44:05.086Z,57.10
2022-08-05T23:46:27.324Z,57.51
2022-08-05T23:49:01.947Z,57.29
2022-08-05T23:52:01.612Z,57.71
2022-08-05T23:54:33.749Z,56.90
2022-08-05T23:57:05.238Z,56.57
